Time;durP1;ratioP1;P1;durP2;ratioP2;P2;SDS_P1;SDS_P2;PMS_P1;PMS_P2;Temp;Humidity;BMP_temperature;BMP_pressure;BME280_temperature;BME280_humidity;BME280_pressure;Samples;Min_cycle;Max_cycle;Signal;HPM_P1;HPM_P2
2022/11/05 00:10:02;;;;;;;11.57;3.05;;;7.70;99.90;;;;;;5014824;28;20227;-86
2022/11/05 00:17:57;;;;;;;11.02;3.10;;;7.60;99.90;;;;;;4980228;28;20042;-86
2022/11/05 00:20:22;;;;;;;12.02;3.08;;;7.70;99.90;;;;;;4987103;28;20046;-86
2022/11/05 00:25:32;;;;;;;13.52;3.50;;;7.50;99.90;;;;;;5015632;28;20088;-86
2022/11/05 00:28:02;;;;;;;12.00;3.25;;;8.10;99.90;;;;;;4977073;28;20085;-86
2022/11/05 00:30:28;;;;;;;13.32;3.78;;;7.50;99.90;;;;;;4982573;28;20050;-86
2022/11/05 00:33:00;;;;;;;10.75;2.97;;;7.40;99.90;;;;;;5010236;28;20495;-85
2022/11/05 00:35:25;;;;;;;13.70;3.40;;;7.40;99.90;;;;;;5009712;28;20475;-85
2022/11/05 00:37:52;;;;;;;11.35;3.47;;;7.40;99.90;;;;;;4975642;28;20052;-86
2022/11/05 00:40:18;;;;;;;10.70;3.17;;;7.40;99.90;;;;;;5003614;28;20045;-86
2022/11/05 00:45:30;;;;;;;10.48;3.28;;;7.40;99.90;;;;;;4999248;28;20049;-86
2022/11/05 00:50:40;;;;;;;12.27;3.63;;;7.30;99.90;;;;;;5009274;28;20096;-85
2022/11/05 00:53:06;;;;;;;9.68;3.00;;;7.50;99.90;;;;;;4993805;28;20042;-86
2022/11/05 00:55:40;;;;;;;13.73;3.25;;;7.30;99.90;;;;;;4992959;28;20104;-86
2022/11/05 00:58:12;;;;;;;13.80;3.97;;;7.30;99.90;;;;;;4993118;28;20571;-86
2022/11/05 01:00:44;;;;;;;12.75;3.17;;;7.30;99.90;;;;;;4993077;28;20502;-86
2022/11/05 01:03:12;;;;;;;11.77;3.28;;;7.60;99.90;;;;;;4986628;28;20065;-86
2022/11/05 01:05:41;;;;;;;10.18;3.15;;;8.20;99.90;;;;;;4992886;28;20177;-85
2022/11/05 01:08:08;;;;;;;10.45;3.30;;;7.20;99.90;;;;;;4993088;28;20088;-86
2022/11/05 01:10:38;;;;;;;12.43;3.10;;;7.50;99.90;;;;;;5009012;28;20125;-85
2022/11/05 01:13:04;;;;;;;13.20;3.40;;;7.20;99.90;;;;;;4993095;28;20042;-85
2022/11/05 01:15:30;;;;;;;9.50;3.22;;;8.30;99.90;;;;;;4974282;28;20045;-85
2022/11/05 01:17:55;;;;;;;10.35;3.08;;;7.30;99.90;;;;;;4980224;28;20132;-85
2022/11/05 01:20:21;;;;;;;11.95;2.92;;;7.30;99.90;;;;;;4996196;28;20099;-86
2022/11/05 01:22:47;;;;;;;9.38;2.92;;;7.20;99.90;;;;;;4974060;28;20033;-85
2022/11/05 01:25:12;;;;;;;10.20;2.85;;;7.20;99.90;;;;;;4995989;28;20518;-86
2022/11/05 01:27:38;;;;;;;11.98;3.10;;;7.30;99.90;;;;;;5012482;28;20049;-86
2022/11/05 01:30:06;;;;;;;9.02;2.92;;;7.20;99.90;;;;;;5024696;28;20053;-86
2022/11/05 01:32:33;;;;;;;11.75;2.83;;;7.20;99.90;;;;;;4973649;28;20443;-86
2022/11/05 01:34:58;;;;;;;13.95;3.20;;;7.20;99.90;;;;;;4986757;28;20095;-86
2022/11/05 01:37:24;;;;;;;12.32;2.92;;;7.20;99.90;;;;;;5011795;28;20037;-85
2022/11/05 01:39:50;;;;;;;10.98;2.88;;;7.10;99.90;;;;;;5012069;28;20521;-85
2022/11/05 01:42:21;;;;;;;11.45;2.72;;;7.10;99.90;;;;;;4995723;28;20092;-86
2022/11/05 01:45:05;;;;;;;10.30;2.80;;;7.10;99.90;;;;;;5012036;28;20045;-85
2022/11/05 01:47:44;;;;;;;17.50;2.88;;;7.30;99.90;;;;;;5012023;28;20521;-85
2022/11/05 01:50:42;;;;;;;8.73;2.53;;;7.10;99.90;;;;;;5011751;28;20045;-85
2022/11/05 01:53:10;;;;;;;8.20;2.58;;;7.10;99.90;;;;;;5011455;28;20060;-86
2022/11/05 01:55:40;;;;;;;11.65;3.03;;;7.10;99.90;;;;;;5011504;28;20041;-86
2022/11/05 01:58:10;;;;;;;10.88;2.47;;;7.10;99.90;;;;;;5028789;28;20443;-85
2022/11/05 02:00:36;;;;;;;13.57;3.13;;;7.10;99.90;;;;;;5027954;28;20046;-85
2022/11/05 02:03:02;;;;;;;10.82;2.60;;;7.10;99.90;;;;;;5012127;28;20299;-85
2022/11/05 02:05:28;;;;;;;11.55;2.50;;;8.10;99.90;;;;;;5011349;28;20682;-85
2022/11/05 02:07:54;;;;;;;12.05;2.47;;;7.10;99.90;;;;;;4995751;28;20041;-86
2022/11/05 02:10:21;;;;;;;11.30;2.70;;;7.10;99.90;;;;;;5011418;28;20120;-85
2022/11/05 02:12:47;;;;;;;9.93;2.50;;;7.00;99.90;;;;;;5011834;28;20052;-85
2022/11/05 02:15:16;;;;;;;8.25;2.50;;;7.20;99.90;;;;;;4995019;28;20041;-85
2022/11/05 02:17:44;;;;;;;13.30;2.50;;;7.10;99.90;;;;;;5012410;28;20362;-86
2022/11/05 02:20:50;;;;;;;10.13;2.40;;;7.30;99.90;;;;;;5008161;28;20126;-85
2022/11/05 02:23:24;;;;;;;12.50;2.67;;;7.00;99.90;;;;;;4988713;28;20078;-85
2022/11/05 02:26:28;;;;;;;9.18;2.30;;;7.00;99.90;;;;;;5008149;28;20042;-85
2022/11/05 02:29:12;;;;;;;10.80;2.30;;;7.00;99.90;;;;;;4992287;28;20412;-85
2022/11/05 02:32:18;;;;;;;13.45;2.70;;;7.00;99.90;;;;;;4991989;28;20037;-86
2022/11/05 02:35:05;;;;;;;11.45;2.20;;;7.00;99.90;;;;;;5008277;28;20080;-85
2022/11/05 02:37:39;;;;;;;11.35;2.20;;;7.00;99.90;;;;;;4992131;28;20162;-85
2022/11/05 02:40:15;;;;;;;10.43;2.22;;;7.50;99.90;;;;;;4991584;28;20050;-85
2022/11/05 02:42:53;;;;;;;13.05;2.70;;;8.30;99.90;;;;;;5008505;28;20042;-85
2022/11/05 02:45:40;;;;;;;7.85;2.30;;;7.00;99.90;;;;;;4991737;28;20042;-85
2022/11/05 02:48:28;;;;;;;9.63;2.42;;;7.00;99.90;;;;;;5008251;28;20045;-85
2022/11/05 02:51:09;;;;;;;9.85;2.20;;;7.90;99.90;;;;;;4995095;28;20526;-85
2022/11/05 02:54:01;;;;;;;10.70;2.42;;;7.00;99.90;;;;;;4995549;28;20081;-85
2022/11/05 02:56:31;;;;;;;10.00;2.50;;;7.00;99.90;;;;;;5011702;28;20099;-85
2022/11/05 02:58:57;;;;;;;8.18;2.13;;;7.00;99.90;;;;;;4995689;28;20041;-85
2022/11/05 03:01:22;;;;;;;9.05;2.00;;;7.20;99.90;;;;;;4995035;28;20092;-85
2022/11/05 03:03:56;;;;;;;9.43;1.98;;;7.00;99.90;;;;;;4974261;28;20052;-86
2022/11/05 03:06:33;;;;;;;8.88;2.13;;;7.60;99.90;;;;;;5014999;28;20045;-85
2022/11/05 03:09:12;;;;;;;6.72;2.20;;;7.70;99.90;;;;;;5015134;28;20045;-85
2022/11/05 03:12:03;;;;;;;9.25;2.20;;;7.10;99.90;;;;;;5014857;28;20038;-86
2022/11/05 03:14:36;;;;;;;12.00;2.15;;;7.10;99.90;;;;;;5012182;28;20048;-85
2022/11/05 03:17:32;;;;;;;7.18;1.90;;;8.00;99.90;;;;;;4998623;28;20218;-85
2022/11/05 03:20:00;;;;;;;13.15;2.33;;;7.10;99.90;;;;;;4980944;28;20088;-85
2022/11/05 03:22:33;;;;;;;12.55;2.35;;;7.10;99.90;;;;;;5011633;28;20042;-85
2022/11/05 03:25:05;;;;;;;10.07;1.90;;;7.10;99.90;;;;;;5011341;28;20046;-85
2022/11/05 03:27:37;;;;;;;9.35;2.30;;;7.10;99.90;;;;;;5011362;28;20116;-85
2022/11/05 03:30:06;;;;;;;10.43;2.00;;;7.10;99.90;;;;;;4994423;28;20095;-85
2022/11/05 03:32:36;;;;;;;12.73;2.38;;;5.70;99.90;;;;;;5011271;28;20046;-85
2022/11/05 03:35:09;;;;;;;10.38;2.08;;;7.60;99.90;;;;;;4994164;28;20054;-85
2022/11/05 03:37:40;;;;;;;12.30;2.30;;;7.00;99.90;;;;;;5011053;28;20100;-85
2022/11/05 03:40:09;;;;;;;9.98;1.98;;;7.30;99.90;;;;;;4994426;28;20116;-85
2022/11/05 03:42:37;;;;;;;10.70;2.08;;;6.90;99.90;;;;;;4994684;28;20092;-85
2022/11/05 03:45:26;;;;;;;9.50;2.28;;;6.90;99.90;;;;;;4994060;28;20265;-85
2022/11/05 03:47:57;;;;;;;7.85;2.20;;;7.30;99.90;;;;;;5010960;28;20084;-85
2022/11/05 03:50:45;;;;;;;8.82;2.28;;;7.00;99.90;;;;;;4994087;28;20099;-85
2022/11/05 03:53:15;;;;;;;12.43;2.10;;;7.20;99.90;;;;;;4992549;28;20053;-85
2022/11/05 03:56:00;;;;;;;9.60;2.20;;;8.20;99.90;;;;;;4994018;28;20049;-85
2022/11/05 03:58:28;;;;;;;7.15;2.10;;;7.00;99.90;;;;;;4994658;28;20080;-85
2022/11/05 04:00:54;;;;;;;9.65;2.22;;;7.00;99.90;;;;;;5010241;28;20105;-85
2022/11/05 04:03:19;;;;;;;10.63;2.35;;;7.00;99.90;;;;;;4994553;28;20084;-85
2022/11/05 04:13:22;;;;;;;8.90;2.38;;;7.10;99.90;;;;;;4974766;28;20042;-85
2022/11/05 04:13:59;;;;;;;7.10;2.25;;;7.10;99.90;;;;;;5016271;28;20107;-85
2022/11/05 04:19:09;;;;;;;13.00;2.60;;;7.70;99.90;;;;;;5000835;28;20037;-85
2022/11/05 04:24:18;;;;;;;7.97;2.35;;;7.20;99.90;;;;;;5010093;28;20050;-85
2022/11/05 04:26:44;;;;;;;8.20;2.30;;;8.20;99.90;;;;;;4974284;28;20052;-85
2022/11/05 04:31:55;;;;;;;8.52;2.40;;;7.20;99.90;;;;;;5010083;28;20049;-85
2022/11/05 04:34:21;;;;;;;13.32;3.00;;;7.30;99.90;;;;;;4977271;28;20072;-85
2022/11/05 04:36:51;;;;;;;13.05;2.70;;;7.30;99.90;;;;;;4974408;28;20076;-86
2022/11/05 04:39:17;;;;;;;11.15;2.85;;;7.30;99.90;;;;;;5006802;28;20041;-85
2022/11/05 04:41:46;;;;;;;9.93;2.60;;;7.90;99.90;;;;;;4993512;28;20407;-85
2022/11/05 04:44:13;;;;;;;8.10;2.70;;;8.50;99.90;;;;;;4993641;28;20042;-85
2022/11/05 04:46:38;;;;;;;9.55;2.80;;;7.60;99.90;;;;;;4973944;28;20073;-85
2022/11/05 04:49:04;;;;;;;11.45;2.90;;;7.40;99.90;;;;;;4991612;28;20085;-85
2022/11/05 04:51:30;;;;;;;10.48;2.72;;;7.40;99.90;;;;;;4996538;28;20053;-85
2022/11/05 04:53:55;;;;;;;10.35;2.80;;;7.40;99.90;;;;;;5012915;28;20578;-85
2022/11/05 04:56:23;;;;;;;9.48;2.75;;;7.40;99.90;;;;;;4996801;28;20095;-85
2022/11/05 04:58:49;;;;;;;10.50;2.75;;;7.40;99.90;;;;;;5013001;28;20498;-85
2022/11/05 05:01:17;;;;;;;9.60;3.10;;;7.40;99.90;;;;;;5012561;28;20041;-85
2022/11/05 05:03:45;;;;;;;10.30;3.08;;;7.40;99.90;;;;;;5013437;28;20576;-85
2022/11/05 05:06:10;;;;;;;9.63;3.20;;;7.40;99.90;;;;;;5012785;28;20052;-85
2022/11/05 05:08:36;;;;;;;14.13;3.40;;;8.50;99.90;;;;;;5012814;28;20037;-85
2022/11/05 05:11:07;;;;;;;10.63;3.22;;;7.50;99.90;;;;;;5011774;28;20048;-85
2022/11/05 05:13:34;;;;;;;10.80;2.97;;;7.50;99.90;;;;;;5012842;28;20073;-86
2022/11/05 05:16:07;;;;;;;13.55;3.60;;;7.90;99.90;;;;;;5012209;28;20038;-85
2022/11/05 05:18:33;;;;;;;9.57;3.67;;;7.50;99.90;;;;;;5012908;28;20041;-85
2022/11/05 05:23:47;;;;;;;11.35;4.38;;;7.50;99.90;;;;;;5000353;28;20041;-85
2022/11/05 05:26:13;;;;;;;10.48;4.25;;;7.50;99.90;;;;;;4992655;28;20044;-85
2022/11/05 05:28:38;;;;;;;14.00;4.25;;;8.00;99.90;;;;;;4976991;28;20495;-85
2022/11/05 05:31:04;;;;;;;9.48;4.03;;;7.90;99.90;;;;;;5008726;28;20045;-85
2022/11/05 05:33:30;;;;;;;12.45;4.10;;;7.40;99.90;;;;;;4960550;28;20122;-85
2022/11/05 05:35:56;;;;;;;12.43;4.10;;;7.50;99.90;;;;;;4972929;28;20078;-85
2022/11/05 05:38:22;;;;;;;11.88;4.03;;;7.40;99.90;;;;;;5001732;28;20041;-85
2022/11/05 05:40:49;;;;;;;10.30;3.85;;;7.40;99.90;;;;;;4992364;28;20037;-85
2022/11/05 05:43:15;;;;;;;14.98;4.45;;;8.30;99.90;;;;;;4992627;28;20041;-86
2022/11/05 05:45:41;;;;;;;11.38;4.10;;;7.30;99.90;;;;;;4992294;28;20049;-86
2022/11/05 05:48:06;;;;;;;10.40;4.03;;;7.40;99.90;;;;;;4992582;28;20220;-85
2022/11/05 05:50:32;;;;;;;16.40;3.90;;;7.20;99.90;;;;;;4976573;28;20049;-85
2022/11/05 05:52:58;;;;;;;12.95;4.07;;;8.60;99.90;;;;;;5012227;28;20046;-85
2022/11/05 05:55:24;;;;;;;12.43;4.10;;;7.10;99.90;;;;;;5027751;28;20057;-85
2022/11/05 05:57:49;;;;;;;11.18;3.85;;;7.10;99.90;;;;;;4996065;28;20106;-85
2022/11/05 06:00:15;;;;;;;12.18;4.10;;;7.30;99.90;;;;;;5027783;28;20402;-85
2022/11/05 06:02:41;;;;;;;11.32;4.25;;;7.00;99.90;;;;;;5028966;28;20042;-85
2022/11/05 06:05:07;;;;;;;9.68;4.22;;;7.00;99.90;;;;;;4979038;28;20541;-86
2022/11/05 06:07:33;;;;;;;14.02;5.28;;;7.00;99.90;;;;;;5012146;28;20307;-85
2022/11/05 06:09:58;;;;;;;11.25;4.20;;;7.00;99.90;;;;;;5011646;28;20048;-85
2022/11/05 06:12:24;;;;;;;11.10;4.03;;;8.00;99.90;;;;;;4981768;28;20073;-85
2022/11/05 06:14:49;;;;;;;16.35;4.90;;;6.90;99.90;;;;;;4985131;28;20069;-85
2022/11/05 06:17:15;;;;;;;13.52;4.80;;;6.90;99.90;;;;;;4976077;28;20502;-85
2022/11/05 06:19:41;;;;;;;9.57;4.03;;;8.10;99.90;;;;;;5008540;28;20457;-85
2022/11/05 06:22:06;;;;;;;11.38;4.70;;;7.30;99.90;;;;;;4992162;28;20045;-85
2022/11/05 06:24:32;;;;;;;13.70;5.25;;;6.90;99.90;;;;;;4990247;28;20077;-85
2022/11/05 06:26:58;;;;;;;12.80;4.47;;;6.90;99.90;;;;;;4999180;28;20042;-85
2022/11/05 06:29:23;;;;;;;16.05;5.07;;;6.90;99.90;;;;;;5015631;28;20071;-85
2022/11/05 06:31:49;;;;;;;14.02;4.30;;;6.90;99.90;;;;;;4999116;28;20037;-85
2022/11/05 06:34:15;;;;;;;13.40;4.68;;;7.30;99.90;;;;;;5015686;28;20037;-86
2022/11/05 06:36:40;;;;;;;13.68;4.65;;;7.30;99.90;;;;;;5015713;28;20418;-85
2022/11/05 06:39:10;;;;;;;12.68;4.80;;;6.90;99.90;;;;;;4982884;28;20435;-85
2022/11/05 06:41:36;;;;;;;14.57;4.80;;;6.90;99.90;;;;;;4982654;28;20043;-85
2022/11/05 06:44:02;;;;;;;11.75;4.93;;;8.50;99.90;;;;;;5007626;28;20050;-85
2022/11/05 06:46:27;;;;;;;12.15;5.22;;;6.90;99.90;;;;;;4970035;28;20297;-85
2022/11/05 06:48:53;;;;;;;12.45;5.30;;;6.90;99.90;;;;;;4995675;28;20052;-85
2022/11/05 06:51:19;;;;;;;11.95;5.10;;;6.80;99.90;;;;;;4978909;28;20137;-85
2022/11/05 06:53:45;;;;;;;13.02;4.70;;;6.80;99.90;;;;;;4995944;28;20050;-85
2022/11/05 06:56:10;;;;;;;13.60;5.00;;;6.90;99.90;;;;;;4995553;28;20483;-85
2022/11/05 06:58:36;;;;;;;11.63;4.97;;;6.80;99.90;;;;;;4995546;28;20483;-86
2022/11/05 07:01:07;;;;;;;15.02;5.05;;;6.80;99.90;;;;;;4995075;28;20038;-85
2022/11/05 07:03:33;;;;;;;13.95;5.30;;;6.80;99.90;;;;;;4995695;28;20033;-86
2022/11/05 07:06:00;;;;;;;12.60;5.32;;;6.80;99.90;;;;;;4989024;28;20491;-86
2022/11/05 07:08:30;;;;;;;13.48;5.35;;;6.90;99.90;;;;;;5015070;28;20041;-85
2022/11/05 07:10:55;;;;;;;13.65;5.40;;;6.80;99.90;;;;;;5015019;28;20045;-86
2022/11/05 07:13:21;;;;;;;11.52;5.10;;;7.10;99.90;;;;;;4998569;28;20091;-86
2022/11/05 07:15:46;;;;;;;10.13;4.53;;;7.30;99.90;;;;;;4998265;28;20076;-85
2022/11/05 07:18:12;;;;;;;11.85;5.43;;;6.80;99.90;;;;;;4978334;28;20395;-85
2022/11/05 07:20:38;;;;;;;13.43;5.10;;;8.00;99.90;;;;;;4991763;28;20033;-85
2022/11/05 07:23:06;;;;;;;12.27;5.50;;;8.20;99.90;;;;;;4989513;28;20034;-85
2022/11/05 07:25:33;;;;;;;10.82;5.22;;;7.40;99.90;;;;;;5011259;28;20419;-86
2022/11/05 07:27:59;;;;;;;13.00;5.47;;;6.90;99.90;;;;;;5011280;28;20049;-86
2022/11/05 07:30:26;;;;;;;12.40;5.32;;;7.00;99.90;;;;;;5001808;28;20418;-85
2022/11/05 07:32:51;;;;;;;12.48;4.85;;;7.00;99.90;;;;;;5014848;28;20049;-85
2022/11/05 07:35:17;;;;;;;14.07;4.82;;;7.20;99.90;;;;;;4996827;28;20046;-85
2022/11/05 07:37:44;;;;;;;13.73;4.93;;;7.20;99.90;;;;;;4998670;28;20038;-85
2022/11/05 07:40:11;;;;;;;12.63;5.00;;;7.30;99.90;;;;;;5012015;28;20046;-86
2022/11/05 07:42:42;;;;;;;13.38;4.80;;;7.30;99.90;;;;;;4995216;28;20048;-86
2022/11/05 07:45:08;;;;;;;13.88;5.00;;;7.30;99.90;;;;;;5010523;28;20119;-86
2022/11/05 07:47:37;;;;;;;13.57;5.00;;;7.40;99.90;;;;;;4978537;28;20093;-86
2022/11/05 07:50:03;;;;;;;12.18;5.30;;;7.90;99.90;;;;;;4994163;28;20490;-85
2022/11/05 07:52:31;;;;;;;12.35;5.38;;;7.50;99.90;;;;;;4974003;28;20144;-86
2022/11/05 07:54:56;;;;;;;12.95;5.20;;;8.50;99.90;;;;;;4997520;28;20075;-86
2022/11/05 07:57:22;;;;;;;10.73;5.40;;;8.40;99.90;;;;;;5030532;28;20118;-85
2022/11/05 07:59:48;;;;;;;14.02;5.00;;;7.60;99.90;;;;;;4964087;28;20184;-86
2022/11/05 08:02:13;;;;;;;12.70;5.30;;;7.70;99.90;;;;;;4994294;28;20120;-85
2022/11/05 08:04:41;;;;;;;10.40;4.75;;;7.70;99.90;;;;;;4991081;28;20046;-85
2022/11/05 08:07:07;;;;;;;12.80;4.90;;;7.80;99.90;;;;;;4984586;28;20045;-85
2022/11/05 08:09:33;;;;;;;11.90;5.18;;;7.80;99.90;;;;;;4978098;28;20288;-85
2022/11/05 08:11:59;;;;;;;10.88;4.80;;;7.90;99.90;;;;;;5010569;28;20292;-85
2022/11/05 08:14:24;;;;;;;11.50;5.15;;;9.10;99.90;;;;;;4976684;28;20125;-85
2022/11/05 08:16:50;;;;;;;12.48;4.43;;;9.30;99.90;;;;;;4977728;28;20038;-85
2022/11/05 08:19:15;;;;;;;12.45;4.70;;;8.10;99.90;;;;;;4967674;28;20049;-86
2022/11/05 08:21:41;;;;;;;13.95;4.90;;;8.10;99.90;;;;;;5013622;28;20486;-85
2022/11/05 08:24:07;;;;;;;10.77;4.55;;;8.20;99.90;;;;;;4995691;28;20069;-86
2022/11/05 08:26:33;;;;;;;10.20;4.50;;;8.30;99.90;;;;;;4993624;28;20081;-85
2022/11/05 08:28:59;;;;;;;10.70;4.40;;;8.30;99.90;;;;;;4994153;28;20088;-85
2022/11/05 08:31:25;;;;;;;12.00;4.20;;;8.40;99.90;;;;;;4978012;28;20503;-86
2022/11/05 08:33:52;;;;;;;9.88;4.20;;;8.60;99.90;;;;;;4974280;28;20049;-86
2022/11/05 08:36:18;;;;;;;12.13;5.07;;;8.50;99.90;;;;;;4992872;28;20381;-86
2022/11/05 08:38:43;;;;;;;12.07;4.10;;;8.60;99.90;;;;;;4994035;28;20119;-86
2022/11/05 08:41:09;;;;;;;12.88;4.50;;;8.60;99.90;;;;;;4973799;28;20038;-86
2022/11/05 08:43:35;;;;;;;10.20;3.50;;;8.60;99.90;;;;;;4985598;28;20395;-86
2022/11/05 08:46:01;;;;;;;10.23;4.20;;;9.30;99.90;;;;;;5008394;28;20042;-86
2022/11/05 08:48:27;;;;;;;12.25;4.45;;;8.80;99.90;;;;;;4971756;28;20045;-86
2022/11/05 08:50:53;;;;;;;10.00;4.28;;;8.60;99.90;;;;;;4993996;28;20324;-86
2022/11/05 08:53:19;;;;;;;11.95;4.65;;;8.70;99.90;;;;;;4974285;28;20046;-85
2022/11/05 08:55:46;;;;;;;9.82;4.13;;;8.80;99.90;;;;;;4989254;28;20498;-85
2022/11/05 08:58:15;;;;;;;13.23;4.10;;;8.90;99.90;;;;;;4990336;28;20042;-85
2022/11/05 09:00:42;;;;;;;12.00;3.90;;;9.10;99.90;;;;;;4989081;28;20048;-86
2022/11/05 09:03:09;;;;;;;12.35;4.13;;;9.20;99.90;;;;;;4993335;28;20048;-86
2022/11/05 09:05:37;;;;;;;9.30;3.92;;;9.40;99.90;;;;;;4992657;28;20431;-86
2022/11/05 09:08:10;;;;;;;9.32;3.35;;;9.50;99.90;;;;;;4974331;28;20049;-86
2022/11/05 09:10:37;;;;;;;9.45;3.55;;;9.60;99.90;;;;;;4989563;28;20399;-86
2022/11/05 09:13:03;;;;;;;10.30;3.80;;;9.70;99.90;;;;;;4977082;28;20056;-86
2022/11/05 09:15:29;;;;;;;9.90;3.50;;;9.70;99.90;;;;;;5008927;28;20048;-86
2022/11/05 09:17:56;;;;;;;8.45;3.35;;;9.80;99.90;;;;;;4992974;28;20034;-86
2022/11/05 09:20:22;;;;;;;10.63;3.10;;;9.90;99.90;;;;;;4992486;28;20053;-86
2022/11/05 09:22:48;;;;;;;10.73;3.47;;;10.10;99.90;;;;;;4973558;28;20039;-86
2022/11/05 09:25:14;;;;;;;11.77;2.78;;;10.20;99.90;;;;;;4970898;28;20055;-86
2022/11/05 09:27:40;;;;;;;8.30;2.50;;;10.20;99.90;;;;;;4967763;28;20045;-86
2022/11/05 09:30:07;;;;;;;9.35;3.05;;;10.30;99.90;;;;;;4980017;28;20045;-86
2022/11/05 09:32:33;;;;;;;11.13;3.22;;;10.40;99.90;;;;;;4980000;28;20080;-86
2022/11/05 09:34:59;;;;;;;10.32;3.13;;;10.50;99.90;;;;;;4995604;28;20065;-86
2022/11/05 09:37:26;;;;;;;9.25;3.35;;;10.70;99.90;;;;;;4995965;28;20037;-86
2022/11/05 09:39:53;;;;;;;8.70;3.17;;;10.60;99.90;;;;;;5028591;28;20458;-86
2022/11/05 09:42:22;;;;;;;9.95;3.33;;;10.70;99.90;;;;;;4995620;28;20052;-86
2022/11/05 09:44:58;;;;;;;10.73;3.05;;;10.70;99.90;;;;;;4998269;28;20400;-86
2022/11/05 09:47:31;;;;;;;8.98;2.58;;;10.80;99.90;;;;;;4992132;28;20049;-86
2022/11/05 09:49:59;;;;;;;8.88;3.10;;;10.90;99.90;;;;;;4992262;28;20055;-86
2022/11/05 09:52:29;;;;;;;9.13;3.00;;;11.00;99.90;;;;;;4976638;28;20112;-86
2022/11/05 09:54:56;;;;;;;9.65;2.97;;;11.10;99.90;;;;;;5006168;28;20049;-86
2022/11/05 09:57:33;;;;;;;9.80;3.00;;;11.20;99.90;;;;;;4976231;28;20064;-86
2022/11/05 10:00:03;;;;;;;11.30;3.13;;;11.30;99.90;;;;;;4992460;28;20285;-86
2022/11/05 10:02:47;;;;;;;11.20;3.17;;;11.30;99.90;;;;;;4992324;28;20073;-86
2022/11/05 10:05:14;;;;;;;7.82;2.70;;;11.20;99.90;;;;;;4994447;28;20124;-86
2022/11/05 10:08:31;;;;;;;9.77;2.75;;;11.20;99.90;;;;;;5012233;28;20045;-86
2022/11/05 10:11:07;;;;;;;10.45;2.80;;;11.20;99.90;;;;;;5017826;28;20089;-86
2022/11/05 10:13:50;;;;;;;9.35;2.92;;;11.30;99.90;;;;;;5008875;28;20042;-86
2022/11/05 10:16:30;;;;;;;10.18;2.88;;;11.30;99.90;;;;;;4991895;28;20050;-86
2022/11/05 10:19:11;;;;;;;13.77;3.10;;;11.20;99.90;;;;;;4992518;28;20402;-86
2022/11/05 10:21:37;;;;;;;9.15;2.70;;;11.20;99.90;;;;;;4992312;28;20049;-86
2022/11/05 10:24:22;;;;;;;9.73;2.85;;;11.30;99.90;;;;;;4976641;28;20038;-86
2022/11/05 10:26:51;;;;;;;7.88;2.80;;;11.30;99.90;;;;;;4992020;28;20445;-86
2022/11/05 10:29:28;;;;;;;8.65;2.50;;;11.40;99.90;;;;;;5008606;28;20080;-86
2022/11/05 10:31:56;;;;;;;10.02;3.08;;;11.50;99.90;;;;;;5008320;28;20091;-86
2022/11/05 10:34:26;;;;;;;8.40;2.60;;;11.60;99.90;;;;;;5008241;28;20281;-86
2022/11/05 10:36:53;;;;;;;9.90;2.80;;;11.70;99.90;;;;;;5008218;28;20491;-86
2022/11/05 10:39:19;;;;;;;7.93;2.65;;;11.80;99.90;;;;;;5008308;28;20045;-86
2022/11/05 10:42:04;;;;;;;7.85;2.50;;;11.80;99.90;;;;;;4991765;28;20095;-85
2022/11/05 10:44:51;;;;;;;9.70;2.85;;;11.80;99.90;;;;;;5008499;28;20060;-86
2022/11/05 10:47:51;;;;;;;9.13;2.70;;;11.90;99.90;;;;;;5008079;28;20042;-86
2022/11/05 10:50:28;;;;;;;7.57;2.78;;;11.90;99.90;;;;;;5008024;28;20037;-86
2022/11/05 10:52:58;;;;;;;8.43;2.65;;;11.80;99.90;;;;;;5008147;28;20058;-86
2022/11/05 10:55:36;;;;;;;9.50;2.58;;;11.80;99.90;;;;;;4991365;28;20074;-86
2022/11/05 10:58:21;;;;;;;6.22;2.20;;;11.90;99.90;;;;;;5008333;28;20273;-86
2022/11/05 11:00:53;;;;;;;9.75;2.72;;;11.90;99.90;;;;;;4991686;28;20093;-86
2022/11/05 11:03:47;;;;;;;10.23;2.45;;;12.00;99.90;;;;;;4991706;28;20117;-86
2022/11/05 11:06:30;;;;;;;8.65;2.63;;;12.10;99.90;;;;;;4991557;28;20045;-86
2022/11/05 11:09:01;;;;;;;9.02;2.50;;;12.00;99.90;;;;;;4991557;28;20053;-86
2022/11/05 11:11:37;;;;;;;7.78;2.55;;;12.10;99.90;;;;;;5008824;28;20152;-86
2022/11/05 11:14:12;;;;;;;6.72;2.30;;;12.10;99.90;;;;;;5002545;28;20052;-86
2022/11/05 11:16:58;;;;;;;8.02;2.40;;;12.10;99.90;;;;;;4997595;28;20042;-86
2022/11/05 11:19:30;;;;;;;8.55;2.70;;;12.20;99.90;;;;;;4977148;28;20099;-86
2022/11/05 11:22:02;;;;;;;9.43;2.45;;;12.20;99.90;;;;;;5002879;28;20112;-86
2022/11/05 11:24:29;;;;;;;7.72;2.22;;;12.30;99.90;;;;;;5031041;28;20498;-85
2022/11/05 11:27:02;;;;;;;13.15;2.67;;;12.40;99.90;;;;;;5014478;28;20038;-86
2022/11/05 11:29:30;;;;;;;9.27;2.38;;;12.30;99.90;;;;;;5030865;28;20049;-86
2022/11/05 11:31:57;;;;;;;8.75;2.05;;;12.30;99.90;;;;;;4998600;28;20473;-86
2022/11/05 11:34:37;;;;;;;6.90;2.10;;;12.40;99.90;;;;;;5031017;28;20459;-86
2022/11/05 11:37:13;;;;;;;7.78;2.20;;;12.50;99.90;;;;;;5030668;28;20049;-87
2022/11/05 11:39:47;;;;;;;9.80;2.22;;;12.60;99.90;;;;;;5010625;28;20403;-86
2022/11/05 11:42:27;;;;;;;8.40;2.35;;;12.80;99.90;;;;;;5011234;28;20418;-86
2022/11/05 11:44:53;;;;;;;6.45;1.80;;;12.80;99.90;;;;;;4994731;28;20431;-86
2022/11/05 11:47:21;;;;;;;8.02;2.10;;;12.90;99.90;;;;;;4990922;28;20041;-87
2022/11/05 11:49:56;;;;;;;8.45;1.95;;;13.00;99.90;;;;;;4997688;28;20048;-87
2022/11/05 11:52:32;;;;;;;7.18;2.13;;;13.10;99.90;;;;;;5014837;28;20277;-87
2022/11/05 11:55:10;;;;;;;6.82;2.10;;;13.10;99.90;;;;;;4994431;28;20048;-87
2022/11/05 11:57:51;;;;;;;7.43;2.00;;;13.10;99.90;;;;;;5010989;28;20038;-86
2022/11/05 12:00:18;;;;;;;5.95;1.70;;;13.10;99.90;;;;;;5010568;28;20403;-86
2022/11/05 12:03:03;;;;;;;8.23;2.08;;;13.00;99.90;;;;;;4994628;28;20037;-86
2022/11/05 12:05:35;;;;;;;7.43;1.90;;;12.80;99.90;;;;;;4993982;28;20052;-86
2022/11/05 12:08:31;;;;;;;9.50;2.10;;;12.70;99.90;;;;;;5010828;28;20121;-86
2022/11/05 12:11:09;;;;;;;8.63;2.03;;;12.70;99.90;;;;;;4993981;28;20421;-86
2022/11/05 12:13:45;;;;;;;9.30;2.40;;;12.70;99.90;;;;;;4994726;28;20038;-86
2022/11/05 12:16:32;;;;;;;11.10;2.05;;;12.70;99.90;;;;;;5010048;28;20107;-86
2022/11/05 12:19:10;;;;;;;8.95;1.90;;;12.60;99.90;;;;;;5010323;28;20045;-86
2022/11/05 12:21:58;;;;;;;6.57;2.00;;;12.50;99.90;;;;;;4993552;28;20053;-86
2022/11/05 12:24:45;;;;;;;9.45;1.95;;;12.50;99.90;;;;;;5010632;28;20094;-86
2022/11/05 12:27:39;;;;;;;7.53;2.00;;;12.40;99.90;;;;;;4993725;28;20108;-86
2022/11/05 12:30:15;;;;;;;9.77;2.22;;;12.30;99.90;;;;;;5009923;28;20503;-86
2022/11/05 12:33:02;;;;;;;7.57;2.22;;;12.20;99.90;;;;;;4993896;28;20509;-86
2022/11/05 12:35:31;;;;;;;7.50;1.90;;;12.10;99.90;;;;;;5009730;28;20046;-86
2022/11/05 12:38:30;;;;;;;10.35;2.20;;;12.20;99.90;;;;;;5010359;28;20041;-86
2022/11/05 12:41:30;;;;;;;5.85;1.48;;;12.00;99.90;;;;;;5009909;28;20399;-86
2022/11/05 12:44:22;;;;;;;4.50;1.48;;;11.80;99.90;;;;;;5009858;28;20605;-86
2022/11/05 12:47:17;;;;;;;6.10;1.50;;;11.80;99.90;;;;;;5005450;28;20494;-86
2022/11/05 12:49:46;;;;;;;5.18;1.65;;;11.70;99.90;;;;;;5013402;28;20441;-87
2022/11/05 12:52:23;;;;;;;4.90;1.58;;;11.60;99.90;;;;;;5012507;28;20049;-86
2022/11/05 12:55:18;;;;;;;4.97;1.55;;;11.50;99.90;;;;;;5013087;28;20526;-86
2022/11/05 12:57:48;;;;;;;5.70;1.80;;;11.50;99.90;;;;;;5012125;28;20046;-87
2022/11/05 13:00:17;;;;;;;6.00;1.75;;;11.40;99.90;;;;;;5012470;28;20048;-86
2022/11/05 13:02:55;;;;;;;5.57;1.67;;;11.40;99.90;;;;;;5013097;28;20045;-86
2022/11/05 13:05:40;;;;;;;6.50;1.90;;;11.40;99.90;;;;;;5012397;28;20041;-86
2022/11/05 13:08:22;;;;;;;6.78;1.85;;;11.40;99.90;;;;;;5029189;28;20106;-86
2022/11/05 13:10:54;;;;;;;5.13;1.77;;;11.40;99.90;;;;;;5029058;28;20080;-86
2022/11/05 13:13:41;;;;;;;5.93;1.90;;;11.30;99.90;;;;;;4994843;28;20099;-85
2022/11/05 13:16:39;;;;;;;6.97;2.13;;;11.30;99.90;;;;;;4992436;28;20042;-85
2022/11/05 13:19:32;;;;;;;6.68;1.95;;;11.30;99.90;;;;;;4985050;28;20060;-86
2022/11/05 13:22:44;;;;;;;8.13;1.80;;;11.20;99.90;;;;;;4992973;28;20460;-86
2022/11/05 13:25:19;;;;;;;7.03;1.80;;;11.20;99.90;;;;;;5008864;28;20538;-86
2022/11/05 13:27:51;;;;;;;7.32;2.10;;;11.20;99.90;;;;;;4993077;28;20189;-87
2022/11/05 13:30:27;;;;;;;6.88;1.90;;;11.20;99.90;;;;;;4992239;28;20232;-87
2022/11/05 13:33:00;;;;;;;6.72;1.70;;;11.30;99.90;;;;;;5008784;28;20046;-86
2022/11/05 13:35:30;;;;;;;8.27;2.20;;;11.30;99.90;;;;;;4992051;28;20125;-86
2022/11/05 13:40:57;;;;;;;7.28;2.10;;;11.40;99.90;;;;;;5008629;28;20045;-86
2022/11/05 13:43:38;;;;;;;6.75;2.20;;;11.40;99.90;;;;;;4992927;28;21338;-86
2022/11/05 13:46:16;;;;;;;8.48;2.10;;;11.40;99.90;;;;;;4992545;28;20462;-86
2022/11/05 13:48:57;;;;;;;6.47;2.00;;;11.40;99.90;;;;;;4992686;28;20042;-86
2022/11/05 13:51:37;;;;;;;7.65;2.40;;;11.60;99.90;;;;;;5008351;28;20595;-86
2022/11/05 13:54:42;;;;;;;8.52;2.63;;;11.50;99.90;;;;;;4980863;28;20137;-86